createdAt,value
2022-11-27T00:01:19.811Z,102237.19
2022-11-27T00:03:46.661Z,102235.69
2022-11-27T00:06:16.038Z,102230.06
2022-11-27T00:08:43.690Z,102227.78
2022-11-27T00:11:15.611Z,102225.28
2022-11-27T00:13:42.146Z,102231.75
2022-11-27T00:16:09.444Z,102229.13
2022-11-27T00:18:36.495Z,102237.03
2022-11-27T00:21:13.040Z,102236.97
2022-11-27T00:23:39.952Z,102246.25
2022-11-27T00:26:07.266Z,102242.41
2022-11-27T00:28:35.601Z,102241.53
2022-11-27T00:31:05.041Z,102252.69
2022-11-27T00:33:31.497Z,102247.94
2022-11-27T00:36:02.463Z,102249.56
2022-11-27T00:38:28.900Z,102244.75
2022-11-27T00:40:59.469Z,102251.06
2022-11-27T00:43:26.003Z,102244.09
2022-11-27T00:45:52.419Z,102235.09
2022-11-27T00:48:18.865Z,102229.75
2022-11-27T00:50:45.302Z,102234.25
2022-11-27T00:53:11.979Z,102224.56
2022-11-27T00:55:38.458Z,102214.97
2022-11-27T00:58:04.880Z,102223.25
2022-11-27T01:00:31.439Z,102226.72
2022-11-27T01:02:57.897Z,102216.19
2022-11-27T01:05:24.351Z,102216.38
2022-11-27T01:07:51.018Z,102217.75
2022-11-27T01:10:17.518Z,102211.78
2022-11-27T01:12:43.936Z,102215.47
2022-11-27T01:15:10.932Z,102215.03
2022-11-27T01:17:37.438Z,102216.69
2022-11-27T01:20:04.178Z,102222.94
2022-11-27T01:22:30.626Z,102226.78
2022-11-27T01:24:57.077Z,102218.25
2022-11-27T01:27:23.538Z,102224.34
2022-11-27T01:29:49.978Z,102228.59
2022-11-27T01:32:16.432Z,102222.59
2022-11-27T01:34:42.854Z,102214.66
2022-11-27T01:37:09.295Z,102208.91
2022-11-27T01:39:35.770Z,102213.72
2022-11-27T01:42:02.233Z,102208.66
2022-11-27T01:44:28.657Z,102216.06
2022-11-27T01:46:58.304Z,102212.31
2022-11-27T01:49:31.391Z,102215.97
2022-11-27T01:52:19.625Z,102209.50
2022-11-27T01:55:00.075Z,102210.88
2022-11-27T01:57:38.682Z,102201.97
2022-11-27T02:00:06.812Z,102207.22
2022-11-27T02:02:33.316Z,102201.31
2022-11-27T02:04:59.768Z,102199.50
2022-11-27T02:07:26.478Z,102193.09
2022-11-27T02:09:53.042Z,102199.56
2022-11-27T02:12:47.058Z,102205.31
2022-11-27T02:15:19.345Z,102211.44
2022-11-27T02:18:10.799Z,102202.47
2022-11-27T02:20:46.254Z,102203.22
2022-11-27T02:23:43.671Z,102194.47
2022-11-27T02:26:18.506Z,102192.38
2022-11-27T02:28:59.944Z,102190.25
2022-11-27T02:31:39.234Z,102187.75
2022-11-27T02:34:37.097Z,102188.22
2022-11-27T02:37:15.129Z,102169.72
2022-11-27T02:39:55.440Z,102175.69
2022-11-27T02:42:22.373Z,102166.59
2022-11-27T02:45:05.215Z,102181.44
2022-11-27T02:47:32.520Z,102177.50
2022-11-27T02:50:00.457Z,102180.03
2022-11-27T02:52:28.475Z,102167.34
2022-11-27T02:55:00.537Z,102169.19
2022-11-27T02:57:28.320Z,102177.94
2022-11-27T02:59:57.170Z,102175.59
2022-11-27T03:02:30.277Z,102177.94
2022-11-27T03:05:00.832Z,102181.59
2022-11-27T03:07:40.785Z,102168.78
2022-11-27T03:10:26.848Z,102162.63
2022-11-27T03:12:53.338Z,102157.31
2022-11-27T03:15:22.063Z,102157.56
2022-11-27T03:18:14.404Z,102158.97
2022-11-27T03:20:44.691Z,102166.81
2022-11-27T03:23:11.176Z,102170.56
2022-11-27T03:25:37.703Z,102175.88
2022-11-27T03:28:08.401Z,102169.28
2022-11-27T03:30:34.864Z,102180.63
2022-11-27T03:33:02.103Z,102180.34
2022-11-27T03:35:28.739Z,102175.22
2022-11-27T03:37:56.299Z,102177.69
2022-11-27T03:40:32.339Z,102182.31
2022-11-27T03:43:05.952Z,102182.78
2022-11-27T03:45:38.067Z,102177.50
2022-11-27T03:48:40.129Z,102179.56
2022-11-27T03:51:28.521Z,102177.44
2022-11-27T03:54:11.338Z,102181.63
2022-11-27T03:56:41.864Z,102182.72
2022-11-27T03:59:23.124Z,102180.97
2022-11-27T04:01:49.820Z,102183.34
2022-11-27T04:04:16.367Z,102181.00
2022-11-27T04:06:42.947Z,102175.41
2022-11-27T04:09:09.403Z,102183.75
2022-11-27T04:11:36.052Z,102191.16
2022-11-27T04:14:02.893Z,102185.13
2022-11-27T04:16:29.515Z,102179.38
2022-11-27T04:18:56.045Z,102175.75
2022-11-27T04:21:22.529Z,102173.88
2022-11-27T04:23:48.915Z,102175.09
2022-11-27T04:26:15.472Z,102180.63
2022-11-27T04:28:41.895Z,102175.75
2022-11-27T04:31:08.438Z,102178.31
2022-11-27T04:33:34.903Z,102184.84
2022-11-27T04:36:01.357Z,102185.28
2022-11-27T04:38:27.815Z,102190.09
2022-11-27T04:40:54.462Z,102189.13
2022-11-27T04:43:20.920Z,102191.50
2022-11-27T04:45:47.384Z,102196.81
2022-11-27T04:48:13.913Z,102196.84
2022-11-27T04:50:40.454Z,102198.66
2022-11-27T04:53:06.948Z,102189.44
2022-11-27T04:55:34.570Z,102187.81
2022-11-27T04:58:01.111Z,102192.44
2022-11-27T05:00:27.629Z,102192.88
2022-11-27T05:02:54.214Z,102189.16
2022-11-27T05:05:21.875Z,102189.81
2022-11-27T05:07:48.337Z,102187.97
2022-11-27T05:10:14.818Z,102188.44
2022-11-27T05:12:41.281Z,102191.22
2022-11-27T05:15:08.640Z,102187.06
2022-11-27T05:17:35.075Z,102187.97
2022-11-27T05:20:01.528Z,102193.94
2022-11-27T05:22:28.006Z,102193.94
2022-11-27T05:24:54.470Z,102197.19
2022-11-27T05:27:20.934Z,102200.88
2022-11-27T05:29:47.374Z,102192.56
2022-11-27T05:32:13.960Z,102198.13
2022-11-27T05:34:40.653Z,102202.28
2022-11-27T05:37:07.367Z,102201.31
2022-11-27T05:39:33.804Z,102196.72
2022-11-27T05:42:00.274Z,102204.34
2022-11-27T05:44:26.984Z,102202.03
2022-11-27T05:46:53.500Z,102195.09
2022-11-27T05:49:19.978Z,102202.53
2022-11-27T05:51:51.013Z,102200.94
2022-11-27T05:54:18.176Z,102212.03
2022-11-27T05:56:44.613Z,102207.47
2022-11-27T05:59:11.602Z,102203.06
2022-11-27T06:01:38.109Z,102203.94
2022-11-27T06:04:04.792Z,102204.41
2022-11-27T06:06:31.419Z,102209.28
2022-11-27T06:08:57.864Z,102209.78
2022-11-27T06:11:24.538Z,102203.31
2022-11-27T06:13:51.551Z,102208.41
2022-11-27T06:16:23.903Z,102205.13
2022-11-27T06:18:55.924Z,102202.84
2022-11-27T06:21:24.135Z,102209.97
2022-11-27T06:23:55.396Z,102219.94
2022-11-27T06:26:25.141Z,102215.31
2022-11-27T06:28:52.248Z,102212.06
2022-11-27T06:31:22.147Z,102223.84
2022-11-27T06:33:50.083Z,102224.09
2022-11-27T06:36:17.452Z,102231.50
2022-11-27T06:38:44.708Z,102227.56
2022-11-27T06:41:13.666Z,102222.28
2022-11-27T06:43:40.204Z,102223.66
2022-11-27T06:46:08.524Z,102222.28
2022-11-27T06:48:35.269Z,102225.25
2022-11-27T06:51:06.528Z,102221.78
2022-11-27T06:53:35.497Z,102210.47
2022-11-27T06:56:07.248Z,102220.63
2022-11-27T06:58:33.693Z,102215.56
2022-11-27T07:01:02.146Z,102226.19
2022-11-27T07:03:28.670Z,102221.13
2022-11-27T07:05:55.117Z,102222.72
2022-11-27T07:08:22.348Z,102217.13
2022-11-27T07:10:48.947Z,102212.50
2022-11-27T07:13:15.513Z,102212.28
2022-11-27T07:15:42.337Z,102209.47
2022-11-27T07:18:08.865Z,102202.72
2022-11-27T07:20:35.285Z,102199.94
2022-11-27T07:23:01.756Z,102200.16
2022-11-27T07:25:28.234Z,102192.28
2022-11-27T07:27:55.669Z,102196.91
2022-11-27T07:30:22.214Z,102200.31
2022-11-27T07:32:48.700Z,102197.72
2022-11-27T07:35:15.225Z,102208.53
2022-11-27T07:37:41.705Z,102213.84
2022-11-27T07:40:08.539Z,102219.03
2022-11-27T07:42:39.034Z,102215.78
2022-11-27T07:45:08.419Z,102216.56
2022-11-27T07:47:34.881Z,102217.22
2022-11-27T07:50:01.567Z,102226.94
2022-11-27T07:52:28.134Z,102226.53
2022-11-27T07:54:54.663Z,102234.41
2022-11-27T07:57:21.348Z,102242.56
2022-11-27T07:59:48.052Z,102241.13
2022-11-27T08:02:14.854Z,102259.09
2022-11-27T08:04:41.718Z,102259.28
2022-11-27T08:07:08.498Z,102248.44
2022-11-27T08:09:35.000Z,102257.19
2022-11-27T08:12:01.443Z,102252.53
2022-11-27T08:14:27.893Z,102254.84
2022-11-27T08:16:54.509Z,102253.66
2022-11-27T08:19:21.188Z,102248.94
2022-11-27T08:21:47.958Z,102256.28
2022-11-27T08:24:14.550Z,102252.72
2022-11-27T08:26:41.015Z,102244.28
2022-11-27T08:29:07.735Z,102250.69
2022-11-27T08:31:34.492Z,102250.69
2022-11-27T08:34:00.997Z,102248.13
2022-11-27T08:36:28.323Z,102256.19
2022-11-27T08:38:55.569Z,102254.53
2022-11-27T08:41:22.267Z,102256.03
2022-11-27T08:43:48.755Z,102256.34
2022-11-27T08:46:15.505Z,102241.00
2022-11-27T08:48:42.112Z,102245.53
2022-11-27T08:51:13.513Z,102232.53
2022-11-27T08:53:40.657Z,102230.13
2022-11-27T08:56:07.340Z,102234.22
2022-11-27T08:58:33.825Z,102242.28
2022-11-27T09:01:16.620Z,102244.13
2022-11-27T09:03:43.546Z,102242.44
2022-11-27T09:06:13.099Z,102247.34
2022-11-27T09:08:40.798Z,102246.09
2022-11-27T09:11:08.355Z,102252.75
2022-11-27T09:13:36.969Z,102247.69
2022-11-27T09:16:09.648Z,102240.03
2022-11-27T09:18:36.240Z,102240.19
2022-11-27T09:21:09.281Z,102232.84
2022-11-27T09:23:37.476Z,102232.56
2022-11-27T09:26:06.926Z,102233.81
2022-11-27T09:28:34.085Z,102230.16
2022-11-27T09:31:03.064Z,102241.00
2022-11-27T09:33:31.501Z,102238.94
2022-11-27T09:35:58.169Z,102227.41
2022-11-27T09:38:24.871Z,102222.25
2022-11-27T09:41:01.805Z,102218.88
2022-11-27T09:43:34.515Z,102210.59
2022-11-27T09:46:09.149Z,102196.69
2022-11-27T09:48:41.510Z,102194.75
2022-11-27T09:51:29.168Z,102200.38
2022-11-27T09:54:05.721Z,102207.81
2022-11-27T09:56:35.296Z,102211.56
2022-11-27T09:59:02.458Z,102215.94
2022-11-27T10:01:40.412Z,102209.28
2022-11-27T10:04:14.328Z,102201.22
2022-11-27T10:07:20.768Z,102206.50
2022-11-27T10:09:53.160Z,102195.63
2022-11-27T10:12:38.340Z,102188.94
2022-11-27T10:15:13.755Z,102188.09
2022-11-27T10:18:02.974Z,102188.16
2022-11-27T10:20:44.596Z,102183.63
2022-11-27T10:23:29.450Z,102180.28
2022-11-27T10:26:01.275Z,102182.88
2022-11-27T10:28:33.558Z,102169.06
2022-11-27T10:31:04.304Z,102175.66
2022-11-27T10:33:41.216Z,102175.38
2022-11-27T10:36:15.585Z,102173.41
2022-11-27T10:38:43.667Z,102167.00
2022-11-27T10:44:25.742Z,102165.31
2022-11-27T10:46:57.276Z,102166.84
2022-11-27T10:49:23.638Z,102162.78
2022-11-27T10:51:50.088Z,102164.84
2022-11-27T10:54:44.154Z,102160.66
2022-11-27T10:57:39.059Z,102150.81
2022-11-27T11:00:09.010Z,102152.16
2022-11-27T11:02:38.710Z,102147.25
2022-11-27T11:05:37.659Z,102149.47
2022-11-27T11:08:19.312Z,102149.84
2022-11-27T11:11:00.457Z,102144.38
2022-11-27T11:13:29.276Z,102144.00
2022-11-27T11:15:57.575Z,102144.00
2022-11-27T11:18:35.628Z,102138.47
2022-11-27T11:21:07.044Z,102137.41
2022-11-27T11:23:34.839Z,102129.00
2022-11-27T11:26:05.397Z,102132.13
2022-11-27T11:28:39.506Z,102129.97
2022-11-27T11:31:09.664Z,102134.53
2022-11-27T11:33:46.903Z,102119.91
2022-11-27T11:36:13.759Z,102120.81
2022-11-27T11:38:44.799Z,102117.53
2022-11-27T11:41:12.773Z,102117.72
2022-11-27T11:43:39.785Z,102104.72
2022-11-27T11:46:22.941Z,102100.84
2022-11-27T11:48:53.841Z,102099.22
2022-11-27T11:51:39.484Z,102097.19
2022-11-27T11:54:18.596Z,102088.41
2022-11-27T11:56:52.308Z,102090.22
2022-11-27T11:59:50.400Z,102086.91
2022-11-27T12:02:40.769Z,102079.56
2022-11-27T12:05:36.912Z,102077.16
2022-11-27T12:08:41.735Z,102076.59
2022-11-27T12:11:15.993Z,102064.84
2022-11-27T12:14:41.352Z,102059.72
2022-11-27T12:17:20.074Z,102058.97
2022-11-27T12:20:10.681Z,102056.03
2022-11-27T12:22:37.645Z,102048.66
2022-11-27T12:25:37.808Z,102053.41
2022-11-27T12:28:41.559Z,102043.09
2022-11-27T12:31:24.028Z,102039.97
2022-11-27T12:34:20.659Z,102032.84
2022-11-27T12:36:54.733Z,102034.88
2022-11-27T12:39:28.473Z,102019.66
2022-11-27T12:41:57.669Z,102024.34
2022-11-27T12:44:51.761Z,102022.69
2022-11-27T12:47:28.953Z,102021.94
2022-11-27T12:50:01.880Z,102018.66
2022-11-27T12:52:33.728Z,102008.72
2022-11-27T12:55:20.947Z,101997.69
2022-11-27T12:58:07.056Z,101996.66
2022-11-27T13:00:41.039Z,101997.38
2022-11-27T13:03:25.900Z,101995.56
2022-11-27T13:05:55.302Z,101989.91
2022-11-27T13:08:33.597Z,101980.22
2022-11-27T13:11:07.610Z,101980.53
2022-11-27T13:13:59.256Z,101970.03
2022-11-27T13:16:45.672Z,101974.91
2022-11-27T13:19:14.954Z,101962.44
2022-11-27T13:21:42.977Z,101965.75
2022-11-27T13:24:13.133Z,101959.88
2022-11-27T13:26:48.951Z,101955.88
2022-11-27T13:29:25.155Z,101953.69
2022-11-27T13:31:56.877Z,101949.31
2022-11-27T13:34:29.172Z,101954.06
2022-11-27T13:37:02.790Z,101937.09
2022-11-27T13:39:34.056Z,101931.97
2022-11-27T13:42:12.756Z,101929.94
2022-11-27T13:44:45.210Z,101935.25
2022-11-27T13:47:18.449Z,101930.94
2022-11-27T13:49:46.353Z,101937.38
2022-11-27T13:52:17.904Z,101931.31
2022-11-27T13:55:07.614Z,101932.09
2022-11-27T13:57:34.422Z,101929.03
2022-11-27T14:00:07.232Z,101920.59
2022-11-27T14:02:46.021Z,101914.44
2022-11-27T14:05:14.958Z,101914.06
2022-11-27T14:07:48.273Z,101911.84
2022-11-27T14:10:26.701Z,101908.72
2022-11-27T14:13:06.264Z,101902.41
2022-11-27T14:15:35.944Z,101907.44
2022-11-27T14:18:18.402Z,101897.56
2022-11-27T14:20:51.416Z,101894.66
2022-11-27T14:23:51.574Z,101897.41
2022-11-27T14:26:22.714Z,101893.38
2022-11-27T14:28:55.462Z,101889.34
2022-11-27T14:31:25.676Z,101892.47
2022-11-27T14:36:38.735Z,101887.66
2022-11-27T14:39:05.215Z,101894.84
2022-11-27T14:41:31.954Z,101894.19
2022-11-27T14:44:02.094Z,101894.00
2022-11-27T14:46:30.477Z,101886.53
2022-11-27T14:48:57.202Z,101879.94
2022-11-27T14:51:29.635Z,101886.97
2022-11-27T14:54:11.629Z,101883.31
2022-11-27T14:56:42.045Z,101882.78
2022-11-27T14:59:20.010Z,101888.31
2022-11-27T15:01:59.355Z,101895.47
2022-11-27T15:04:28.564Z,101887.25
2022-11-27T15:06:57.690Z,101882.69
2022-11-27T15:09:32.405Z,101881.97
2022-11-27T15:12:15.192Z,101876.13
2022-11-27T15:14:47.114Z,101876.38
2022-11-27T15:17:23.773Z,101870.34
2022-11-27T15:19:50.375Z,101868.50
2022-11-27T15:22:18.540Z,101868.69
2022-11-27T15:24:45.093Z,101869.81
2022-11-27T15:27:14.594Z,101852.09
2022-11-27T15:29:58.684Z,101854.84
2022-11-27T15:32:27.492Z,101843.72
2022-11-27T15:34:54.622Z,101850.13
2022-11-27T15:37:34.282Z,101841.88
2022-11-27T15:40:01.852Z,101846.47
2022-11-27T15:42:28.697Z,101841.91
2022-11-27T15:44:57.222Z,101835.53
2022-11-27T15:47:37.619Z,101834.44
2022-11-27T15:50:05.676Z,101828.41
2022-11-27T15:52:33.045Z,101831.38
2022-11-27T15:54:59.489Z,101833.91
2022-11-27T15:57:26.350Z,101842.91
2022-11-27T15:59:52.771Z,101841.81
2022-11-27T16:02:19.231Z,101846.72
2022-11-27T16:04:45.686Z,101846.75
2022-11-27T16:07:12.196Z,101831.75
2022-11-27T16:09:39.769Z,101837.25
2022-11-27T16:12:06.804Z,101825.91
2022-11-27T16:14:33.510Z,101823.19
2022-11-27T16:17:01.320Z,101828.66
2022-11-27T16:19:27.867Z,101829.94
2022-11-27T16:21:54.738Z,101828.81
2022-11-27T16:24:21.386Z,101821.16
2022-11-27T16:26:47.835Z,101824.44
2022-11-27T16:29:14.410Z,101826.81
2022-11-27T16:31:41.055Z,101824.81
2022-11-27T16:34:07.658Z,101822.75
2022-11-27T16:36:34.220Z,101827.16
2022-11-27T16:39:00.740Z,101831.72
2022-11-27T16:41:27.385Z,101836.28
2022-11-27T16:43:56.153Z,101844.84
2022-11-27T16:46:27.981Z,101843.72
2022-11-27T16:48:56.178Z,101841.50
2022-11-27T16:51:25.480Z,101846.59
2022-11-27T16:53:54.741Z,101844.75
2022-11-27T16:56:24.052Z,101835.63
2022-11-27T16:58:51.312Z,101829.06
2022-11-27T17:01:25.767Z,101829.47
2022-11-27T17:03:52.758Z,101827.41
2022-11-27T17:06:29.506Z,101830.50
2022-11-27T17:08:57.692Z,101831.94
2022-11-27T17:11:26.177Z,101832.66
2022-11-27T17:13:55.952Z,101819.00
2022-11-27T17:16:22.985Z,101825.00
2022-11-27T17:18:49.501Z,101819.81
2022-11-27T17:21:19.111Z,101810.69
2022-11-27T17:23:46.806Z,101811.75
2022-11-27T17:26:16.265Z,101811.19
2022-11-27T17:28:42.784Z,101811.13
2022-11-27T17:31:15.573Z,101813.81
2022-11-27T17:33:42.383Z,101808.66
2022-11-27T17:36:09.527Z,101801.22
2022-11-27T17:38:36.246Z,101792.66
2022-11-27T17:41:08.570Z,101793.03
2022-11-27T17:43:36.468Z,101787.56
2022-11-27T17:46:08.376Z,101782.03
2022-11-27T17:48:35.374Z,101788.22
2022-11-27T17:51:02.110Z,101786.00
2022-11-27T17:53:28.611Z,101786.78
2022-11-27T17:55:57.958Z,101787.13
2022-11-27T17:58:24.400Z,101781.28
2022-11-27T18:00:50.855Z,101791.81
2022-11-27T18:03:17.378Z,101781.44
2022-11-27T18:05:43.876Z,101785.31
2022-11-27T18:08:10.283Z,101776.16
2022-11-27T18:10:36.768Z,101769.25
2022-11-27T18:13:03.317Z,101769.06
2022-11-27T18:15:29.751Z,101775.19
2022-11-27T18:17:56.202Z,101771.91
2022-11-27T18:20:22.644Z,101778.56
2022-11-27T18:22:49.088Z,101785.09
2022-11-27T18:25:15.517Z,101782.47
2022-11-27T18:27:42.448Z,101776.84
2022-11-27T18:30:09.458Z,101777.34
2022-11-27T18:32:39.255Z,101781.06
2022-11-27T18:35:06.751Z,101787.03
2022-11-27T18:37:34.962Z,101784.09
2022-11-27T18:40:01.716Z,101779.84
2022-11-27T18:42:30.256Z,101780.16
2022-11-27T18:44:56.744Z,101769.97
2022-11-27T18:47:23.337Z,101775.97
2022-11-27T18:49:49.972Z,101771.97
2022-11-27T18:52:16.729Z,101769.22
2022-11-27T18:54:44.125Z,101761.56
2022-11-27T18:57:11.207Z,101753.44
2022-11-27T18:59:38.305Z,101751.84
2022-11-27T19:02:05.432Z,101758.34
2022-11-27T19:04:35.576Z,101755.63
2022-11-27T19:07:01.988Z,101741.75
2022-11-27T19:09:28.507Z,101742.66
2022-11-27T19:11:54.980Z,101740.81
2022-11-27T19:14:21.578Z,101741.16
2022-11-27T19:16:48.597Z,101740.94
2022-11-27T19:22:06.137Z,101740.22
2022-11-27T19:24:32.659Z,101739.84
2022-11-27T19:26:59.283Z,101735.66
2022-11-27T19:29:25.802Z,101730.59
2022-11-27T19:31:55.009Z,101734.84
2022-11-27T19:34:21.445Z,101729.97
2022-11-27T19:36:48.101Z,101720.88
2022-11-27T19:39:15.674Z,101731.28
2022-11-27T19:41:43.320Z,101721.66
2022-11-27T19:44:12.058Z,101724.88
2022-11-27T19:46:39.127Z,101722.81
2022-11-27T19:49:08.564Z,101724.63
2022-11-27T19:51:37.763Z,101712.66
2022-11-27T19:54:09.954Z,101710.50
2022-11-27T19:56:38.741Z,101718.06
2022-11-27T19:59:05.882Z,101715.06
2022-11-27T20:01:32.858Z,101719.19
2022-11-27T20:03:59.925Z,101718.97
2022-11-27T20:06:27.094Z,101721.84
2022-11-27T20:09:00.938Z,101718.91
2022-11-27T20:11:34.082Z,101713.63
2022-11-27T20:14:01.544Z,101710.53
2022-11-27T20:16:28.094Z,101715.03
2022-11-27T20:18:55.148Z,101710.16
2022-11-27T20:21:24.091Z,101703.31
2022-11-27T20:23:52.277Z,101711.09
2022-11-27T20:26:22.159Z,101702.00
2022-11-27T20:28:50.128Z,101698.13
2022-11-27T20:31:19.718Z,101699.13
2022-11-27T20:33:46.339Z,101702.97
2022-11-27T20:36:14.462Z,101698.81
2022-11-27T20:38:41.051Z,101704.66
2022-11-27T20:41:08.899Z,101704.91
2022-11-27T20:43:35.870Z,101711.91
2022-11-27T20:46:03.163Z,101710.78
2022-11-27T20:48:30.256Z,101706.00
2022-11-27T20:50:56.976Z,101704.50
2022-11-27T20:53:23.416Z,101699.31
2022-11-27T20:55:49.859Z,101698.38
2022-11-27T20:58:16.354Z,101696.22
2022-11-27T21:00:42.866Z,101702.63
2022-11-27T21:03:09.452Z,101705.63
2022-11-27T21:05:35.889Z,101698.94
2022-11-27T21:08:02.402Z,101689.78
2022-11-27T21:10:28.852Z,101687.16
2022-11-27T21:12:55.343Z,101686.25
2022-11-27T21:15:21.904Z,101693.25
2022-11-27T21:17:48.334Z,101692.66
2022-11-27T21:20:14.808Z,101690.88
2022-11-27T21:22:43.867Z,101686.53
2022-11-27T21:25:10.585Z,101689.38
2022-11-27T21:27:37.511Z,101688.19
2022-11-27T21:30:06.073Z,101681.28
2022-11-27T21:32:32.527Z,101684.94
2022-11-27T21:34:59.018Z,101679.19
2022-11-27T21:37:25.531Z,101679.19
2022-11-27T21:39:52.024Z,101667.00
2022-11-27T21:42:18.614Z,101666.53
2022-11-27T21:44:45.056Z,101666.97
2022-11-27T21:47:12.060Z,101669.16
2022-11-27T21:49:39.917Z,101664.06
2022-11-27T21:52:07.123Z,101669.28
2022-11-27T21:54:34.637Z,101661.34
2022-11-27T21:57:01.382Z,101669.56
2022-11-27T21:59:27.877Z,101672.28
2022-11-27T22:01:57.100Z,101670.34
2022-11-27T22:04:24.816Z,101671.53
2022-11-27T22:06:51.423Z,101665.94
2022-11-27T22:09:18.085Z,101664.94
2022-11-27T22:11:45.905Z,101664.88
2022-11-27T22:14:14.282Z,101663.75
2022-11-27T22:16:45.365Z,101666.03
2022-11-27T22:19:14.281Z,101666.31
2022-11-27T22:21:41.622Z,101662.13
2022-11-27T22:24:14.853Z,101658.09
2022-11-27T22:26:44.649Z,101656.19
2022-11-27T22:29:11.179Z,101662.81
2022-11-27T22:31:37.627Z,101667.44
2022-11-27T22:34:04.392Z,101663.53
2022-11-27T22:36:33.306Z,101658.31
2022-11-27T22:39:04.120Z,101655.97
2022-11-27T22:41:32.739Z,101648.72
2022-11-27T22:44:00.377Z,101643.44
2022-11-27T22:46:32.626Z,101633.66
2022-11-27T22:49:00.980Z,101627.75
2022-11-27T22:51:32.042Z,101624.59
2022-11-27T22:53:58.961Z,101627.16
2022-11-27T22:56:25.917Z,101628.75
2022-11-27T22:59:06.061Z,101624.63
2022-11-27T23:01:40.785Z,101627.97
2022-11-27T23:04:07.468Z,101621.25
2022-11-27T23:06:33.899Z,101624.22
2022-11-27T23:09:00.413Z,101625.56
2022-11-27T23:11:28.404Z,101625.81
2022-11-27T23:13:56.696Z,101630.69
2022-11-27T23:16:23.825Z,101627.84
2022-11-27T23:18:51.206Z,101626.19
2022-11-27T23:21:20.623Z,101624.38
2022-11-27T23:23:47.210Z,101628.56
2022-11-27T23:26:18.336Z,101621.44
2022-11-27T23:28:46.092Z,101622.69
2022-11-27T23:31:29.469Z,101621.94
2022-11-27T23:33:57.182Z,101625.53
2022-11-27T23:36:23.674Z,101632.66
2022-11-27T23:38:50.221Z,101631.19
2022-11-27T23:41:22.113Z,101629.84
2022-11-27T23:43:49.140Z,101636.78
2022-11-27T23:46:17.889Z,101628.66
2022-11-27T23:48:45.245Z,101625.41
2022-11-27T23:51:14.539Z,101622.19
2022-11-27T23:53:41.457Z,101609.47
2022-11-27T23:56:14.451Z,101604.38
2022-11-27T23:58:46.656Z,101600.97
